TOMAZ weather

Aviosuperficie Il Falco
Mazzè (TO), Piedmont, Italy

Public forecast

Using degrees Celsius for public forecast. Weather courtesy of forecast.io.

Closest aviation weather report (METAR) to Aviosuperficie Il Falco

Closest report is Turin Airport, 13.3 nm (24.5 km) WSW. Retrieved 2019/10/20 04:20 UTC (21 minutes ago):

LIMF 200420Z 04006KT 0200 R36/0650N FG VV001 15/15 Q1016

Closest aviation forecast (TAF) to Aviosuperficie Il Falco

Closest forecast is Turin Airport, 13.3 nm (24.5 km) WSW. Retrieved 2019-10-20 00:00 UTC (5 hours ago):

TAF LIMF 192300Z 2000/2024 VRB05KT 3000 BR SCT008 BKN030